createdAt,value
2023-01-21T00:00:23.655Z,7.47
2023-01-21T00:02:50.234Z,6.83
2023-01-21T00:05:16.815Z,7.53
2023-01-21T00:07:43.385Z,7.33
2023-01-21T00:10:10.311Z,6.93
2023-01-21T00:12:37.963Z,7.87
2023-01-21T00:15:04.918Z,6.87
2023-01-21T00:17:35.882Z,6.73
2023-01-21T00:20:04.511Z,6.27
2023-01-21T00:22:31.100Z,6.90
2023-01-21T00:24:57.729Z,6.20
2023-01-21T00:27:24.367Z,7.00
2023-01-21T00:29:51.050Z,6.83
2023-01-21T00:32:17.741Z,6.90
2023-01-21T00:34:44.448Z,7.50
2023-01-21T00:37:11.159Z,7.93
2023-01-21T00:39:42.713Z,6.87
2023-01-21T00:42:11.242Z,6.60
2023-01-21T00:44:40.653Z,8.60
2023-01-21T00:47:07.566Z,7.30
2023-01-21T00:49:34.191Z,7.93
2023-01-21T00:52:01.292Z,7.13
2023-01-21T00:54:27.917Z,7.00
2023-01-21T00:56:54.923Z,8.33
2023-01-21T00:59:21.684Z,8.17
2023-01-21T01:01:48.291Z,7.70
2023-01-21T01:04:14.980Z,6.70
2023-01-21T01:06:41.540Z,7.17
2023-01-21T01:09:08.698Z,7.80
2023-01-21T01:11:35.292Z,8.13
2023-01-21T01:14:02.140Z,7.57
2023-01-21T01:16:28.773Z,7.83
2023-01-21T01:18:55.671Z,6.40
2023-01-21T01:21:22.935Z,7.20
2023-01-21T01:23:54.807Z,7.10
2023-01-21T01:26:22.389Z,6.27
2023-01-21T01:28:49.321Z,6.30
2023-01-21T01:31:17.736Z,5.77
2023-01-21T01:33:44.469Z,6.37
2023-01-21T01:36:15.643Z,6.73
2023-01-21T01:38:43.152Z,6.33
2023-01-21T01:41:15.584Z,6.50
2023-01-21T01:43:56.330Z,8.13
2023-01-21T01:46:25.543Z,5.37
2023-01-21T01:49:15.294Z,6.60
2023-01-21T01:51:50.181Z,7.13
2023-01-21T01:54:22.775Z,6.63
2023-01-21T01:56:55.435Z,6.43
2023-01-21T01:59:22.223Z,7.07
2023-01-21T02:01:49.098Z,7.43
2023-01-21T02:04:21.218Z,5.17
2023-01-21T02:06:50.577Z,7.37
2023-01-21T02:09:17.187Z,7.70
2023-01-21T02:11:43.847Z,7.60
2023-01-21T02:14:10.500Z,7.93
2023-01-21T02:16:57.494Z,7.57
2023-01-21T02:19:45.712Z,7.70
2023-01-21T02:22:32.765Z,9.13
2023-01-21T02:25:11.519Z,10.40
2023-01-21T02:27:44.783Z,9.40
2023-01-21T02:30:33.203Z,9.20
2023-01-21T02:33:35.081Z,10.83
2023-01-21T02:36:04.524Z,12.17
2023-01-21T02:38:57.006Z,11.53
2023-01-21T02:41:23.559Z,10.33
2023-01-21T02:44:19.115Z,10.17
2023-01-21T02:47:04.140Z,12.67
2023-01-21T02:49:40.123Z,12.87
2023-01-21T02:52:06.757Z,13.43
2023-01-21T02:54:39.273Z,14.33
2023-01-21T02:57:07.157Z,17.53
2023-01-21T02:59:35.708Z,15.03
2023-01-21T03:02:34.453Z,12.63
2023-01-21T03:05:29.464Z,12.40
2023-01-21T03:08:11.399Z,13.33
2023-01-21T03:10:48.116Z,14.07
2023-01-21T03:13:43.539Z,13.13
2023-01-21T03:16:32.208Z,14.47
2023-01-21T03:19:04.826Z,15.23
2023-01-21T03:21:33.003Z,17.27
2023-01-21T03:24:00.118Z,17.67
2023-01-21T03:26:37.123Z,13.13
2023-01-21T03:29:09.826Z,15.70
2023-01-21T03:31:39.370Z,16.33
2023-01-21T03:34:10.345Z,16.40
2023-01-21T03:36:57.103Z,16.20
2023-01-21T03:39:48.611Z,15.10
2023-01-21T03:42:15.665Z,14.27
2023-01-21T03:44:42.473Z,13.50
2023-01-21T03:47:31.798Z,14.87
2023-01-21T03:50:06.272Z,15.27
2023-01-21T03:52:33.657Z,14.90
2023-01-21T03:55:00.335Z,18.07
2023-01-21T03:57:27.035Z,16.27
2023-01-21T03:59:53.970Z,15.43
2023-01-21T04:02:21.102Z,17.60
2023-01-21T04:04:47.996Z,17.47
2023-01-21T04:07:16.141Z,16.33
2023-01-21T04:09:42.855Z,17.67
2023-01-21T04:12:10.317Z,18.87
2023-01-21T04:14:37.049Z,16.47
2023-01-21T04:17:04.092Z,17.67
2023-01-21T04:19:30.666Z,16.93
2023-01-21T04:21:57.374Z,17.57
2023-01-21T04:24:23.951Z,16.27
2023-01-21T04:26:50.871Z,16.23
2023-01-21T04:29:18.216Z,16.17
2023-01-21T04:31:44.979Z,16.17
2023-01-21T04:34:11.646Z,16.53
2023-01-21T04:36:38.278Z,15.87
2023-01-21T04:39:04.884Z,14.83
2023-01-21T04:41:31.531Z,15.50
2023-01-21T04:43:58.171Z,14.53
2023-01-21T04:46:24.850Z,14.03
2023-01-21T04:48:51.404Z,15.77
2023-01-21T04:51:18.016Z,17.20
2023-01-21T04:53:44.595Z,14.43
2023-01-21T04:56:11.186Z,17.70
2023-01-21T04:58:37.792Z,17.50
2023-01-21T05:01:04.380Z,17.47
2023-01-21T05:03:30.983Z,17.03
2023-01-21T05:05:57.563Z,17.63
2023-01-21T05:08:24.212Z,17.30
2023-01-21T05:10:50.843Z,17.93
2023-01-21T05:13:17.469Z,17.07
2023-01-21T05:15:44.062Z,15.63
2023-01-21T05:18:10.707Z,14.43
2023-01-21T05:20:37.467Z,17.87
2023-01-21T05:23:04.066Z,15.93
2023-01-21T05:25:30.600Z,18.60
2023-01-21T05:27:57.271Z,16.30
2023-01-21T05:30:23.838Z,15.87
2023-01-21T05:32:54.476Z,14.63
2023-01-21T05:35:23.238Z,16.77
2023-01-21T05:37:50.034Z,18.33
2023-01-21T05:40:18.208Z,15.17
2023-01-21T05:42:46.215Z,18.33
2023-01-21T05:45:13.177Z,18.67
2023-01-21T05:47:39.848Z,20.73
2023-01-21T05:50:06.912Z,15.47
2023-01-21T05:52:33.534Z,17.60
2023-01-21T05:55:02.824Z,16.27
2023-01-21T05:57:30.440Z,18.33
2023-01-21T05:59:57.341Z,17.67
2023-01-21T06:02:24.003Z,19.33
2023-01-21T06:04:50.602Z,18.23
2023-01-21T06:07:17.281Z,18.53
2023-01-21T06:09:43.922Z,20.50
2023-01-21T06:12:10.579Z,20.20
2023-01-21T06:14:37.180Z,17.83
2023-01-21T06:17:03.774Z,19.90
2023-01-21T06:19:30.330Z,17.40
2023-01-21T06:21:56.903Z,19.97
2023-01-21T06:24:23.515Z,19.43
2023-01-21T06:26:50.135Z,22.30
2023-01-21T06:29:16.810Z,19.90
2023-01-21T06:31:43.458Z,19.63
2023-01-21T06:34:12.615Z,20.23
2023-01-21T06:36:42.530Z,17.53
2023-01-21T06:39:12.270Z,21.43
2023-01-21T06:41:39.022Z,16.53
2023-01-21T06:44:05.905Z,15.87
2023-01-21T06:46:32.555Z,15.63
2023-01-21T06:48:59.238Z,16.13
2023-01-21T06:51:25.910Z,14.57
2023-01-21T06:53:53.055Z,17.13
2023-01-21T06:56:20.034Z,17.47
2023-01-21T06:58:46.651Z,17.27
2023-01-21T07:01:13.279Z,19.37
2023-01-21T07:03:39.950Z,17.67
2023-01-21T07:06:06.866Z,16.37
2023-01-21T07:08:33.442Z,17.97
2023-01-21T07:11:00.043Z,19.17
2023-01-21T07:13:26.633Z,16.03
2023-01-21T07:15:53.218Z,18.23
2023-01-21T07:18:19.863Z,19.90
2023-01-21T07:20:46.423Z,19.27
2023-01-21T07:23:13.012Z,19.10
2023-01-21T07:25:39.594Z,20.33
2023-01-21T07:28:06.186Z,18.17
2023-01-21T07:30:32.807Z,19.47
2023-01-21T07:33:05.447Z,19.07
2023-01-21T07:35:32.014Z,20.03
2023-01-21T07:37:58.588Z,20.83
2023-01-21T07:40:25.471Z,19.33
2023-01-21T07:42:54.659Z,19.20
2023-01-21T07:45:22.301Z,21.07
2023-01-21T07:47:49.504Z,19.33
2023-01-21T07:50:16.669Z,19.33
2023-01-21T07:52:43.250Z,19.40
2023-01-21T07:55:12.460Z,18.63
2023-01-21T07:57:39.751Z,19.27
2023-01-21T08:00:07.164Z,18.03
2023-01-21T08:02:38.315Z,19.43
2023-01-21T08:05:05.736Z,19.17
2023-01-21T08:07:32.724Z,17.33
2023-01-21T08:09:59.379Z,16.37
2023-01-21T08:12:27.359Z,18.77
2023-01-21T08:14:54.242Z,18.67
2023-01-21T08:17:20.859Z,19.03
2023-01-21T08:19:47.438Z,16.60
2023-01-21T08:22:14.042Z,18.37
2023-01-21T08:24:40.629Z,18.63
2023-01-21T08:27:07.171Z,19.53
2023-01-21T08:29:33.762Z,18.63
2023-01-21T08:32:00.406Z,19.60
2023-01-21T08:34:27.076Z,19.73
2023-01-21T08:36:53.621Z,15.57
2023-01-21T08:39:20.306Z,16.07
2023-01-21T08:41:47.155Z,15.77
2023-01-21T08:44:13.703Z,16.60
2023-01-21T08:46:40.278Z,16.13
2023-01-21T08:49:06.915Z,17.17
2023-01-21T08:51:33.851Z,15.60
2023-01-21T08:54:00.693Z,16.43
2023-01-21T08:56:27.474Z,16.77
2023-01-21T08:58:55.945Z,14.67
2023-01-21T09:01:24.518Z,16.43
2023-01-21T09:04:01.032Z,16.47
2023-01-21T09:06:29.760Z,14.17
2023-01-21T09:08:56.956Z,15.83
2023-01-21T09:11:23.858Z,13.60
2023-01-21T09:13:50.456Z,13.83
2023-01-21T09:16:19.774Z,14.27
2023-01-21T09:18:47.525Z,14.67
2023-01-21T09:21:14.743Z,16.57
2023-01-21T09:23:42.168Z,12.97
2023-01-21T09:26:14.739Z,15.03
2023-01-21T09:28:42.851Z,13.43
2023-01-21T09:31:17.527Z,12.87
2023-01-21T09:33:47.233Z,15.27
2023-01-21T09:36:16.311Z,12.23
2023-01-21T09:38:44.473Z,14.43
2023-01-21T09:41:22.864Z,11.70
2023-01-21T09:44:31.227Z,13.00
2023-01-21T09:47:09.579Z,15.10
2023-01-21T09:49:41.933Z,13.07
2023-01-21T09:52:21.893Z,13.47
2023-01-21T09:54:48.800Z,14.60
2023-01-21T09:57:15.302Z,12.00
2023-01-21T10:00:06.191Z,12.10
2023-01-21T10:02:53.325Z,11.93
2023-01-21T10:05:52.288Z,14.03
2023-01-21T10:08:48.519Z,11.47
2023-01-21T10:11:44.641Z,11.93
2023-01-21T10:14:12.600Z,13.07
2023-01-21T10:16:54.206Z,11.67
2023-01-21T10:19:30.282Z,11.37
2023-01-21T10:22:05.151Z,9.63
2023-01-21T10:24:46.280Z,10.43
2023-01-21T10:27:19.399Z,11.27
2023-01-21T10:29:50.166Z,11.90
2023-01-21T10:32:22.357Z,11.53
2023-01-21T10:34:53.825Z,11.53
2023-01-21T10:37:41.122Z,13.20
2023-01-21T10:40:42.698Z,13.07
2023-01-21T10:43:09.214Z,12.80
2023-01-21T10:46:02.350Z,13.90
2023-01-21T10:48:59.989Z,15.03
2023-01-21T10:51:46.069Z,12.67
2023-01-21T10:54:42.072Z,11.80
2023-01-21T10:57:30.966Z,13.67
2023-01-21T11:00:02.570Z,15.50
2023-01-21T11:02:33.800Z,14.40
2023-01-21T11:05:03.882Z,13.80
2023-01-21T11:07:36.351Z,15.03
2023-01-21T11:10:05.294Z,14.43
2023-01-21T11:12:32.979Z,13.60
2023-01-21T11:15:13.660Z,12.30
2023-01-21T11:17:42.254Z,18.87
2023-01-21T11:20:33.950Z,14.87
2023-01-21T11:23:04.471Z,12.77
2023-01-21T11:25:41.645Z,14.40
2023-01-21T11:28:30.176Z,15.10
2023-01-21T11:31:26.371Z,15.47
2023-01-21T11:33:54.564Z,17.70
2023-01-21T11:36:21.468Z,14.83
2023-01-21T11:39:06.336Z,14.43
2023-01-21T11:41:33.618Z,9.93
2023-01-21T11:44:21.230Z,14.77
2023-01-21T11:46:48.704Z,12.20
2023-01-21T11:49:15.243Z,12.03
2023-01-21T11:51:44.671Z,12.87
2023-01-21T11:54:16.261Z,11.47
2023-01-21T11:57:01.166Z,15.20
2023-01-21T11:59:36.500Z,12.57
2023-01-21T12:02:26.108Z,14.83
2023-01-21T12:04:57.171Z,15.97
2023-01-21T12:07:30.116Z,14.47
2023-01-21T12:10:23.747Z,14.67
2023-01-21T12:13:06.556Z,14.53
2023-01-21T12:15:42.027Z,14.40
2023-01-21T12:18:28.551Z,14.03
2023-01-21T12:21:25.087Z,14.67
2023-01-21T12:24:12.136Z,16.23
2023-01-21T12:26:55.028Z,14.43
2023-01-21T12:29:40.496Z,13.87
2023-01-21T12:32:23.699Z,16.10
2023-01-21T12:35:00.309Z,15.57
2023-01-21T12:37:39.754Z,15.37
2023-01-21T12:40:32.748Z,15.63
2023-01-21T12:43:14.892Z,18.20
2023-01-21T12:45:47.704Z,16.40
2023-01-21T12:48:40.097Z,17.83
2023-01-21T12:51:11.446Z,15.57
2023-01-21T12:53:54.107Z,17.80
2023-01-21T12:56:40.801Z,17.97
2023-01-21T12:59:07.343Z,15.97
2023-01-21T13:01:39.341Z,20.27
2023-01-21T13:04:30.075Z,58.60
2023-01-21T13:07:26.559Z,17.00
2023-01-21T13:10:02.478Z,23.80
2023-01-21T13:12:32.491Z,20.87
2023-01-21T13:15:24.965Z,18.33
2023-01-21T13:17:58.159Z,18.27
2023-01-21T13:20:25.125Z,17.73
2023-01-21T13:23:13.437Z,16.90
2023-01-21T13:25:58.621Z,17.00
2023-01-21T13:28:50.961Z,17.23
2023-01-21T13:31:28.477Z,17.93
2023-01-21T13:34:13.999Z,16.67
2023-01-21T13:37:00.133Z,17.07
2023-01-21T13:39:44.086Z,16.20
2023-01-21T13:42:19.530Z,17.27
2023-01-21T13:44:58.146Z,19.00
2023-01-21T13:47:50.595Z,17.23
2023-01-21T13:50:27.674Z,16.83
2023-01-21T13:53:12.332Z,22.37
2023-01-21T13:55:56.391Z,19.70
2023-01-21T13:58:47.487Z,14.77
2023-01-21T14:19:18.730Z,15.73
2023-01-21T14:22:15.593Z,16.07
2023-01-21T14:25:08.904Z,16.83
2023-01-21T14:27:53.976Z,16.60
2023-01-21T14:30:28.571Z,19.90
2023-01-21T14:33:06.822Z,19.07
2023-01-21T14:35:41.772Z,14.90
2023-01-21T14:38:23.761Z,17.23
2023-01-21T14:41:02.733Z,18.60
2023-01-21T14:43:31.953Z,16.47
2023-01-21T14:46:00.813Z,16.07
2023-01-21T14:48:38.433Z,16.40
2023-01-21T14:51:07.931Z,15.97
2023-01-21T14:53:46.336Z,17.00
2023-01-21T14:56:28.980Z,17.13
2023-01-21T14:58:55.508Z,16.33
2023-01-21T15:01:37.910Z,15.97
2023-01-21T15:04:15.243Z,15.57
2023-01-21T15:06:42.687Z,17.53
2023-01-21T15:09:22.742Z,17.90
2023-01-21T15:11:55.414Z,19.10
2023-01-21T15:14:26.726Z,17.67
2023-01-21T15:16:53.688Z,16.50
2023-01-21T15:19:33.268Z,19.07
2023-01-21T15:22:19.901Z,16.17
2023-01-21T15:25:14.307Z,16.47
2023-01-21T15:27:41.072Z,16.57
2023-01-21T15:30:26.622Z,16.67
2023-01-21T15:32:54.057Z,18.17
2023-01-21T15:35:36.729Z,21.20
2023-01-21T15:38:12.932Z,15.63
2023-01-21T15:40:48.202Z,17.00
2023-01-21T15:43:31.857Z,17.43
2023-01-21T15:46:24.529Z,18.97
2023-01-21T15:49:26.029Z,15.97
2023-01-21T15:52:12.445Z,18.63
2023-01-21T15:54:54.045Z,18.87
2023-01-21T15:57:29.400Z,19.13
2023-01-21T16:00:18.197Z,17.80
2023-01-21T16:02:57.944Z,18.67
2023-01-21T16:05:33.669Z,16.03
2023-01-21T16:08:16.995Z,19.17
2023-01-21T16:11:02.431Z,22.77
2023-01-21T16:13:54.036Z,17.47
2023-01-21T16:16:39.787Z,18.20
2023-01-21T16:19:10.532Z,17.43
2023-01-21T16:21:40.243Z,16.33
2023-01-21T16:24:29.645Z,17.50
2023-01-21T16:26:58.476Z,17.27
2023-01-21T16:29:25.091Z,17.67
2023-01-21T16:31:59.532Z,19.90
2023-01-21T16:34:41.848Z,18.17
2023-01-21T16:37:14.185Z,16.73
2023-01-21T16:39:42.729Z,18.50
2023-01-21T16:42:23.965Z,20.40
2023-01-21T16:44:51.547Z,17.33
2023-01-21T16:47:23.290Z,18.40
2023-01-21T16:49:49.957Z,18.70
2023-01-21T16:52:20.097Z,17.87
2023-01-21T16:54:56.309Z,16.30
2023-01-21T16:57:31.730Z,22.80
2023-01-21T17:00:02.268Z,17.93
2023-01-21T17:02:32.207Z,19.43
2023-01-21T17:05:04.521Z,18.10
2023-01-21T17:07:43.858Z,17.27
2023-01-21T17:10:42.632Z,19.07
2023-01-21T17:13:16.097Z,19.50
2023-01-21T17:15:58.295Z,21.30
2023-01-21T17:18:30.348Z,18.40
2023-01-21T17:21:08.778Z,15.53
2023-01-21T17:23:44.393Z,16.00
2023-01-21T17:26:19.402Z,18.50
2023-01-21T17:28:55.341Z,17.10
2023-01-21T17:31:27.573Z,19.77
2023-01-21T17:34:25.251Z,15.77
2023-01-21T17:36:53.789Z,18.53
2023-01-21T17:39:48.471Z,17.60
2023-01-21T17:42:21.431Z,14.10
2023-01-21T17:45:01.076Z,15.23
2023-01-21T17:47:46.410Z,14.77
2023-01-21T17:50:25.063Z,14.50
2023-01-21T17:52:59.011Z,15.30
2023-01-21T17:55:29.928Z,13.83
2023-01-21T17:57:57.137Z,13.90
2023-01-21T18:00:29.192Z,15.27
2023-01-21T18:02:56.879Z,14.50
2023-01-21T18:05:23.866Z,16.67
2023-01-21T18:07:51.068Z,15.67
2023-01-21T18:10:22.676Z,15.27
2023-01-21T18:12:49.472Z,13.23
2023-01-21T18:15:18.643Z,14.67
2023-01-21T18:17:49.572Z,12.70
2023-01-21T18:20:19.161Z,13.60
2023-01-21T18:22:46.889Z,12.97
2023-01-21T18:25:16.028Z,13.83
2023-01-21T18:27:47.026Z,13.90
2023-01-21T18:30:19.168Z,13.83
2023-01-21T18:32:46.212Z,13.27
2023-01-21T18:35:18.786Z,14.80
2023-01-21T18:37:45.564Z,13.70
2023-01-21T18:40:16.310Z,11.90
2023-01-21T18:42:43.560Z,12.73
2023-01-21T18:45:16.558Z,12.30
2023-01-21T18:47:43.568Z,11.03
2023-01-21T18:50:16.203Z,10.60
2023-01-21T18:52:43.143Z,12.70
2023-01-21T18:55:10.851Z,13.47
2023-01-21T18:57:38.136Z,12.53
2023-01-21T19:00:18.974Z,11.13
2023-01-21T19:02:45.722Z,9.00
2023-01-21T19:05:12.437Z,11.67
2023-01-21T19:07:39.857Z,11.87
2023-01-21T19:10:07.654Z,10.90
2023-01-21T19:12:34.860Z,14.03
2023-01-21T19:15:02.009Z,11.73
2023-01-21T19:17:31.673Z,11.60
2023-01-21T19:19:58.936Z,12.57
2023-01-21T19:22:25.495Z,14.37
2023-01-21T19:24:52.162Z,13.73
2023-01-21T19:27:27.844Z,12.67
2023-01-21T19:29:54.524Z,14.50
2023-01-21T19:32:21.240Z,12.43
2023-01-21T19:34:47.848Z,12.17
2023-01-21T19:37:16.670Z,9.77
2023-01-21T19:39:43.603Z,11.93
2023-01-21T19:42:15.682Z,11.13
2023-01-21T19:44:42.739Z,13.67
2023-01-21T19:47:20.752Z,13.97
2023-01-21T19:49:47.833Z,14.83
2023-01-21T19:52:14.919Z,14.40
2023-01-21T19:54:41.523Z,14.47
2023-01-21T19:57:14.085Z,15.97
2023-01-21T19:59:42.235Z,11.27
2023-01-21T20:02:12.122Z,15.70
2023-01-21T20:04:39.023Z,12.83
2023-01-21T20:07:05.883Z,15.50
2023-01-21T20:09:32.716Z,10.93
2023-01-21T20:12:00.239Z,13.97
2023-01-21T20:14:28.783Z,12.17
2023-01-21T20:16:56.499Z,15.43
2023-01-21T20:19:23.189Z,14.60
2023-01-21T20:22:01.107Z,12.50
2023-01-21T20:24:30.201Z,13.73
2023-01-21T20:26:58.290Z,14.03
2023-01-21T20:29:26.908Z,10.77
2023-01-21T20:31:54.413Z,12.57
2023-01-21T20:34:21.281Z,13.70
2023-01-21T20:36:49.762Z,13.70
2023-01-21T20:39:16.519Z,11.00
2023-01-21T20:41:43.872Z,13.17
2023-01-21T20:44:10.722Z,12.73
2023-01-21T20:46:38.565Z,11.07
2023-01-21T20:49:06.123Z,12.53
2023-01-21T20:51:32.990Z,12.90
2023-01-21T20:53:59.682Z,11.50
2023-01-21T20:56:31.165Z,14.00
2023-01-21T20:58:58.393Z,14.87
2023-01-21T21:01:27.179Z,10.70
2023-01-21T21:03:53.890Z,12.63
2023-01-21T21:06:23.279Z,15.20
2023-01-21T21:08:50.515Z,15.23
2023-01-21T21:11:18.703Z,15.80
2023-01-21T21:13:48.381Z,17.73
2023-01-21T21:16:22.952Z,15.70
2023-01-21T21:18:50.246Z,13.63
2023-01-21T21:21:18.281Z,16.53
2023-01-21T21:23:48.151Z,15.77
2023-01-21T21:26:18.452Z,14.80
2023-01-21T21:28:46.492Z,12.67
2023-01-21T21:31:15.654Z,14.67
2023-01-21T21:33:43.767Z,16.27
2023-01-21T21:36:14.313Z,15.10
2023-01-21T21:38:41.263Z,15.47
2023-01-21T21:41:39.940Z,16.93
2023-01-21T21:44:07.596Z,17.33
2023-01-21T21:46:52.975Z,17.20
2023-01-21T21:49:19.763Z,16.73
2023-01-21T21:51:46.462Z,16.00
2023-01-21T21:54:15.268Z,18.07
2023-01-21T21:56:43.015Z,18.20
2023-01-21T21:59:11.372Z,17.10
2023-01-21T22:01:40.349Z,17.00
2023-01-21T22:04:07.228Z,19.27
2023-01-21T22:06:34.379Z,16.53
2023-01-21T22:09:01.040Z,18.30
2023-01-21T22:11:28.795Z,16.07
2023-01-21T22:13:56.684Z,16.60
2023-01-21T22:16:26.501Z,18.30
2023-01-21T22:18:53.921Z,16.47
2023-01-21T22:21:23.566Z,17.90
2023-01-21T22:23:50.517Z,17.80
2023-01-21T22:26:22.870Z,16.77
2023-01-21T22:28:51.436Z,18.13
2023-01-21T22:31:23.898Z,16.63
2023-01-21T22:33:51.557Z,16.53
2023-01-21T22:36:20.683Z,17.63
2023-01-21T22:38:47.798Z,18.40
2023-01-21T22:41:16.608Z,18.53
2023-01-21T22:43:45.111Z,18.60
2023-01-21T22:46:14.400Z,19.77
2023-01-21T22:48:44.247Z,18.80
2023-01-21T22:51:16.197Z,22.97
2023-01-21T22:53:45.777Z,19.23
2023-01-21T22:56:14.674Z,21.57
2023-01-21T22:58:41.499Z,20.57
2023-01-21T23:01:08.805Z,16.63
2023-01-21T23:03:37.313Z,21.20
2023-01-21T23:06:06.387Z,15.83
2023-01-21T23:08:34.034Z,21.50
2023-01-21T23:11:06.694Z,21.13
2023-01-21T23:13:34.252Z,24.23
2023-01-21T23:16:01.947Z,20.87
2023-01-21T23:18:29.895Z,22.43
2023-01-21T23:20:56.829Z,22.00
2023-01-21T23:23:24.903Z,21.07
2023-01-21T23:25:51.616Z,23.77
2023-01-21T23:28:18.313Z,21.50
2023-01-21T23:30:45.007Z,21.70
2023-01-21T23:33:12.391Z,21.57
2023-01-21T23:35:39.401Z,24.07
2023-01-21T23:38:06.389Z,22.13
2023-01-21T23:40:33.068Z,23.23
2023-01-21T23:42:59.980Z,20.97
2023-01-21T23:45:27.300Z,22.03
2023-01-21T23:47:54.679Z,21.27
2023-01-21T23:50:21.815Z,21.43
2023-01-21T23:52:48.930Z,20.70
2023-01-21T23:55:15.942Z,22.40
2023-01-21T23:57:42.795Z,20.47
